createdAt,value
2019-01-17T00:01:10.063Z,98416.29
2019-01-17T00:17:52.083Z,98413.31
2019-01-17T00:35:15.454Z,98418.80
2019-01-17T00:46:25.823Z,98409.36
2019-01-17T00:52:03.492Z,98413.59
2019-01-17T01:08:39.448Z,98412.19
2019-01-17T01:19:46.234Z,98420.28
2019-01-17T01:25:45.558Z,98425.00
2019-01-17T01:31:23.298Z,98412.91
2019-01-17T01:48:02.322Z,98441.59
2019-01-17T01:53:40.128Z,98442.81
2019-01-17T02:04:31.323Z,98439.37
2019-01-17T02:09:49.860Z,98441.09
2019-01-17T02:15:08.409Z,98444.53
2019-01-17T02:20:26.932Z,98464.55
2019-01-17T02:25:45.550Z,98464.55
2019-01-17T02:31:04.142Z,98464.73
2019-01-17T02:36:22.686Z,98473.66
2019-01-17T02:41:41.287Z,98472.34
2019-01-17T02:46:59.903Z,98464.56
2019-01-17T02:52:18.513Z,98468.41
2019-01-17T02:57:37.310Z,98474.57
2019-01-17T03:02:55.794Z,98462.43
2019-01-17T03:08:14.396Z,98461.52
2019-01-17T03:13:32.932Z,98456.67
2019-01-17T03:18:51.400Z,98448.29
2019-01-17T03:24:09.872Z,98447.28
2019-01-17T03:29:28.341Z,98448.88
2019-01-17T03:34:47.068Z,98426.05
2019-01-17T03:40:26.700Z,98426.14
2019-01-17T03:45:45.248Z,98429.70
2019-01-17T03:51:03.859Z,98432.52
2019-01-17T03:56:22.388Z,98434.84
2019-01-17T04:01:40.936Z,98435.34
2019-01-17T04:06:59.399Z,98440.00
2019-01-17T04:17:48.445Z,98459.80
2019-01-17T04:23:06.986Z,98458.30
2019-01-17T04:28:25.582Z,98451.14
2019-01-17T04:33:44.048Z,98446.28
2019-01-17T04:39:02.684Z,98447.20
2019-01-17T04:44:21.241Z,98432.42
2019-01-17T04:49:39.699Z,98438.37
2019-01-17T04:55:04.816Z,98432.30
2019-01-17T05:00:58.450Z,98436.97
2019-01-17T05:06:17.241Z,98432.11
2019-01-17T05:11:35.779Z,98424.14
2019-01-17T05:16:54.409Z,98425.45
2019-01-17T05:22:12.853Z,98430.20
2019-01-17T05:27:31.458Z,98420.60
2019-01-17T05:32:49.996Z,98424.64
2019-01-17T05:38:08.521Z,98427.86
2019-01-17T05:43:27.355Z,98418.88
2019-01-17T05:48:46.823Z,98419.56
2019-01-17T05:54:06.303Z,98421.70
2019-01-17T05:59:24.827Z,98427.08
2019-01-17T06:04:43.359Z,98423.64
2019-01-17T06:10:01.840Z,98422.10
2019-01-17T06:20:52.452Z,98420.09
2019-01-17T06:26:11.056Z,98421.60
2019-01-17T06:31:29.606Z,98402.89
2019-01-17T06:37:07.399Z,98401.39
2019-01-17T06:42:25.950Z,98401.39
2019-01-17T06:47:44.919Z,98416.44
2019-01-17T06:53:03.536Z,98407.43
2019-01-17T06:58:21.983Z,98414.00
2019-01-17T07:03:40.593Z,98412.90
2019-01-17T07:09:13.331Z,98415.22
2019-01-17T07:14:19.384Z,98414.72
2019-01-17T07:19:37.919Z,98415.31
2019-01-17T07:24:56.380Z,98423.73
2019-01-17T07:30:54.751Z,98423.32
2019-01-17T07:36:32.426Z,98417.16
2019-01-17T07:41:51.049Z,98423.32
2019-01-17T07:47:09.683Z,98416.84
2019-01-17T07:52:28.308Z,98415.75
2019-01-17T07:57:46.930Z,98426.73
2019-01-17T08:03:05.667Z,98420.56
2019-01-17T08:08:24.198Z,98433.70
2019-01-17T08:13:42.756Z,98421.88
2019-01-17T08:19:01.440Z,98426.45
2019-01-17T08:24:20.060Z,98440.41
2019-01-17T08:29:38.665Z,98418.75
2019-01-17T08:34:57.355Z,98423.73
2019-01-17T08:40:20.434Z,98416.53
2019-01-17T08:45:39.279Z,98420.51
2019-01-17T08:50:57.906Z,98421.60
2019-01-17T08:56:16.528Z,98420.38
2019-01-17T09:01:35.179Z,98422.31
2019-01-17T09:06:53.847Z,98418.47
2019-01-17T09:12:12.494Z,98422.81
2019-01-17T09:17:31.158Z,98424.94
2019-01-17T09:22:49.796Z,98413.00
2019-01-17T09:28:08.430Z,98411.69
2019-01-17T09:33:27.454Z,98395.06
2019-01-17T09:38:46.044Z,98391.14
2019-01-17T09:44:04.796Z,98382.21
2019-01-17T09:49:23.532Z,98372.39
2019-01-17T09:54:42.165Z,98373.00
2019-01-17T10:00:00.790Z,98355.80
2019-01-17T10:05:19.400Z,98356.94
2019-01-17T10:10:38.020Z,98355.36
2019-01-17T10:15:59.548Z,98343.53
2019-01-17T10:21:40.407Z,98334.83
2019-01-17T10:27:01.949Z,98338.38
2019-01-17T10:32:35.515Z,98315.48
2019-01-17T10:38:02.845Z,98295.03
2019-01-17T10:43:30.011Z,98296.05
2019-01-17T10:48:51.554Z,98299.18
2019-01-17T10:54:19.005Z,98298.30
2019-01-17T10:59:40.570Z,98300.23
2019-01-17T11:05:07.860Z,98307.31
2019-01-17T11:10:53.923Z,98328.53
2019-01-17T11:16:34.600Z,98315.02
2019-01-17T11:22:12.620Z,98313.62
2019-01-17T11:27:43.287Z,98315.64
2019-01-17T11:33:07.545Z,98317.47
2019-01-17T11:38:44.174Z,98317.29
2019-01-17T11:44:05.774Z,98314.63
2019-01-17T11:49:43.800Z,98318.36
2019-01-17T11:55:11.115Z,98320.97
2019-01-17T12:00:35.451Z,98328.72
2019-01-17T12:05:54.082Z,98328.05
2019-01-17T12:11:12.876Z,98330.38
2019-01-17T12:16:31.756Z,98328.39
2019-01-17T12:21:50.466Z,98353.92
2019-01-17T12:27:10.288Z,98355.84
2019-01-17T12:32:28.891Z,98360.63
2019-01-17T12:37:47.538Z,98363.78
2019-01-17T12:43:06.636Z,98374.12
2019-01-17T12:48:25.292Z,98380.90
2019-01-17T12:53:45.017Z,98377.54
2019-01-17T12:59:03.738Z,98385.20
2019-01-17T13:04:22.376Z,98398.16
2019-01-17T13:09:41.122Z,98394.12
2019-01-17T13:14:59.788Z,98406.32
2019-01-17T13:20:18.520Z,98411.00
2019-01-17T13:25:37.180Z,98417.95
2019-01-17T13:30:55.829Z,98424.97
2019-01-17T13:36:15.693Z,98425.21
2019-01-17T13:41:34.328Z,98439.14
2019-01-17T13:46:53.348Z,98449.58
2019-01-17T13:52:12.003Z,98466.58
2019-01-17T13:57:31.505Z,98475.20
2019-01-17T14:02:50.252Z,98476.84
2019-01-17T14:08:08.921Z,98501.67
2019-01-17T14:13:27.592Z,98510.47
2019-01-17T14:18:46.233Z,98521.67
2019-01-17T14:24:05.115Z,98536.74
2019-01-17T14:29:23.836Z,98547.17
2019-01-17T14:34:42.739Z,98559.14
2019-01-17T14:40:03.258Z,98570.76
2019-01-17T14:45:22.847Z,98588.41
2019-01-17T14:50:41.787Z,98586.98
2019-01-17T14:56:00.418Z,98596.97
2019-01-17T15:01:19.645Z,98622.63
2019-01-17T15:06:38.294Z,98624.23
2019-01-17T15:11:56.940Z,98619.25
2019-01-17T15:17:15.665Z,98628.36
2019-01-17T15:22:34.261Z,98651.64
2019-01-17T15:27:53.007Z,98683.93
2019-01-17T15:33:11.545Z,98686.03
2019-01-17T15:38:30.193Z,98695.41
2019-01-17T15:43:50.015Z,98703.06
2019-01-17T15:49:08.681Z,98707.08
2019-01-17T15:54:27.362Z,98718.28
2019-01-17T15:59:45.940Z,98724.42
2019-01-17T16:05:06.192Z,98722.94
2019-01-17T16:10:24.810Z,98735.58
2019-01-17T16:15:43.519Z,98741.54
2019-01-17T16:21:02.216Z,98747.89
2019-01-17T16:26:22.395Z,98761.87
2019-01-17T16:31:41.103Z,98770.67
2019-01-17T16:37:00.181Z,98788.53
2019-01-17T16:42:18.896Z,98787.41
2019-01-17T16:47:37.436Z,98800.58
2019-01-17T16:52:56.102Z,98812.66
2019-01-17T16:58:15.087Z,98814.59
2019-01-17T17:03:33.660Z,98828.05
2019-01-17T17:08:52.285Z,98828.33
2019-01-17T17:14:11.311Z,98833.00
2019-01-17T17:19:30.140Z,98839.54
2019-01-17T17:24:48.893Z,98843.00
2019-01-17T17:30:10.479Z,98843.88
2019-01-17T17:35:29.138Z,98855.56
2019-01-17T17:40:47.863Z,98869.12
2019-01-17T17:46:06.456Z,98875.63
2019-01-17T17:51:25.082Z,98891.27
2019-01-17T17:56:43.739Z,98903.89
2019-01-17T18:02:02.920Z,98907.10
2019-01-17T18:07:21.554Z,98918.04
2019-01-17T18:12:40.210Z,98921.14
2019-01-17T18:17:58.853Z,98920.64
2019-01-17T18:23:17.437Z,98930.62
2019-01-17T18:28:37.679Z,98939.08
2019-01-17T18:33:56.255Z,98955.45
2019-01-17T18:39:15.068Z,98961.98
2019-01-17T18:44:33.719Z,98966.55
2019-01-17T18:49:52.335Z,98982.96
2019-01-17T18:55:11.096Z,98986.20
2019-01-17T19:00:30.987Z,98994.53
2019-01-17T19:05:49.601Z,99004.22
2019-01-17T19:11:08.303Z,99016.98
2019-01-17T19:16:26.986Z,99028.91
2019-01-17T19:21:47.081Z,99037.43
2019-01-17T19:27:08.865Z,99050.38
2019-01-17T19:32:27.444Z,99046.79
2019-01-17T19:37:46.159Z,99065.44
2019-01-17T19:43:13.936Z,99076.88
2019-01-17T19:48:29.930Z,99100.94
2019-01-17T19:53:48.547Z,99117.11
2019-01-17T19:59:07.169Z,99129.86
2019-01-17T20:04:26.071Z,99134.75
2019-01-17T20:09:44.781Z,99153.06
2019-01-17T20:15:03.663Z,99156.32
2019-01-17T20:20:22.457Z,99166.47
2019-01-17T20:25:41.205Z,99178.91
2019-01-17T20:30:59.878Z,99192.96
2019-01-17T20:36:18.531Z,99207.66
2019-01-17T20:41:37.219Z,99216.97
2019-01-17T20:46:55.839Z,99228.90
2019-01-17T20:52:14.737Z,99231.19
2019-01-17T20:57:33.565Z,99243.27
2019-01-17T21:02:52.284Z,99255.70
2019-01-17T21:08:10.917Z,99259.30
2019-01-17T21:13:29.611Z,99275.44
2019-01-17T21:18:48.253Z,99286.06
2019-01-17T21:24:06.971Z,99302.06
2019-01-17T21:29:25.570Z,99303.87
2019-01-17T21:34:44.149Z,99308.30
2019-01-17T21:40:02.909Z,99315.72
2019-01-17T21:45:21.912Z,99314.54
2019-01-17T21:50:40.569Z,99329.57
2019-01-17T21:55:59.181Z,99334.75
2019-01-17T22:01:17.813Z,99343.55
2019-01-17T22:06:36.435Z,99361.52
2019-01-17T22:11:55.178Z,99376.23
2019-01-17T22:17:13.723Z,99385.70
2019-01-17T22:22:32.361Z,99382.73
2019-01-17T22:27:52.697Z,99382.25
2019-01-17T22:33:11.365Z,99389.44
2019-01-17T22:38:30.087Z,99400.52
2019-01-17T22:43:48.626Z,99416.81
2019-01-17T22:49:07.197Z,99425.61
2019-01-17T22:54:25.757Z,99427.60
2019-01-17T22:59:44.380Z,99434.68
2019-01-17T23:05:03.360Z,99438.02
2019-01-17T23:10:22.046Z,99441.77
2019-01-17T23:15:40.630Z,99447.91
2019-01-17T23:20:59.205Z,99445.47
2019-01-17T23:26:17.811Z,99457.02
2019-01-17T23:31:36.434Z,99464.03
2019-01-17T23:36:55.073Z,99468.41
2019-01-17T23:42:13.684Z,99466.71
2019-01-17T23:47:32.247Z,99470.94
2019-01-17T23:52:50.841Z,99487.34
2019-01-17T23:58:09.462Z,99484.42
